sensor_id;sensor_type;location;lat;lon;timestamp;P1;durP1;ratioP1;P2;durP2;ratioP2
3791;SDS011;1911;53.768;11.474;2023-02-28T00:01:20;24.67;;;12.55;;
3791;SDS011;1911;53.768;11.474;2023-02-28T00:03:45;18.87;;;10.00;;
3791;SDS011;1911;53.768;11.474;2023-02-28T00:06:11;18.50;;;9.47;;
3791;SDS011;1911;53.768;11.474;2023-02-28T00:08:37;14.83;;;8.77;;
3791;SDS011;1911;53.768;11.474;2023-02-28T00:11:05;17.30;;;8.50;;
3791;SDS011;1911;53.768;11.474;2023-02-28T00:13:33;20.33;;;9.60;;
3791;SDS011;1911;53.768;11.474;2023-02-28T00:16:02;16.15;;;8.50;;
3791;SDS011;1911;53.768;11.474;2023-02-28T00:18:37;14.27;;;8.15;;
3791;SDS011;1911;53.768;11.474;2023-02-28T00:21:03;13.80;;;8.82;;
3791;SDS011;1911;53.768;11.474;2023-02-28T00:23:29;13.10;;;7.75;;
3791;SDS011;1911;53.768;11.474;2023-02-28T00:25:55;19.47;;;8.10;;
3791;SDS011;1911;53.768;11.474;2023-02-28T00:28:20;14.90;;;6.90;;
3791;SDS011;1911;53.768;11.474;2023-02-28T00:30:46;18.20;;;8.00;;
3791;SDS011;1911;53.768;11.474;2023-02-28T00:33:12;12.80;;;7.40;;
3791;SDS011;1911;53.768;11.474;2023-02-28T00:35:38;15.70;;;7.50;;
3791;SDS011;1911;53.768;11.474;2023-02-28T00:38:04;18.50;;;7.82;;
3791;SDS011;1911;53.768;11.474;2023-02-28T00:40:29;14.73;;;7.23;;
3791;SDS011;1911;53.768;11.474;2023-02-28T00:42:55;13.90;;;7.40;;
3791;SDS011;1911;53.768;11.474;2023-02-28T00:45:21;10.93;;;6.10;;
3791;SDS011;1911;53.768;11.474;2023-02-28T00:47:46;11.07;;;6.60;;
3791;SDS011;1911;53.768;11.474;2023-02-28T00:50:14;10.70;;;6.13;;
3791;SDS011;1911;53.768;11.474;2023-02-28T00:52:44;15.00;;;6.90;;
3791;SDS011;1911;53.768;11.474;2023-02-28T00:55:10;14.83;;;7.80;;
3791;SDS011;1911;53.768;11.474;2023-02-28T00:57:36;14.23;;;7.70;;
3791;SDS011;1911;53.768;11.474;2023-02-28T01:00:02;16.40;;;7.23;;
3791;SDS011;1911;53.768;11.474;2023-02-28T01:02:29;12.70;;;6.10;;
3791;SDS011;1911;53.768;11.474;2023-02-28T01:04:54;9.77;;;6.03;;
3791;SDS011;1911;53.768;11.474;2023-02-28T01:07:21;14.88;;;6.65;;
3791;SDS011;1911;53.768;11.474;2023-02-28T01:09:47;12.47;;;7.90;;
3791;SDS011;1911;53.768;11.474;2023-02-28T01:12:13;16.00;;;7.43;;
3791;SDS011;1911;53.768;11.474;2023-02-28T01:14:39;12.87;;;6.77;;
3791;SDS011;1911;53.768;11.474;2023-02-28T01:17:04;13.60;;;6.47;;
3791;SDS011;1911;53.768;11.474;2023-02-28T01:19:30;12.40;;;6.40;;
3791;SDS011;1911;53.768;11.474;2023-02-28T01:21:56;11.53;;;5.53;;
3791;SDS011;1911;53.768;11.474;2023-02-28T01:24:21;14.33;;;4.70;;
3791;SDS011;1911;53.768;11.474;2023-02-28T01:26:47;15.70;;;5.90;;
3791;SDS011;1911;53.768;11.474;2023-02-28T01:29:13;9.17;;;5.07;;
3791;SDS011;1911;53.768;11.474;2023-02-28T01:31:39;16.33;;;6.25;;
3791;SDS011;1911;53.768;11.474;2023-02-28T01:34:05;9.07;;;4.67;;
3791;SDS011;1911;53.768;11.474;2023-02-28T01:36:30;10.40;;;4.33;;
3791;SDS011;1911;53.768;11.474;2023-02-28T01:38:56;10.80;;;4.87;;
3791;SDS011;1911;53.768;11.474;2023-02-28T01:41:23;4.93;;;3.53;;
3791;SDS011;1911;53.768;11.474;2023-02-28T01:44:02;10.45;;;4.65;;
3791;SDS011;1911;53.768;11.474;2023-02-28T01:46:31;9.65;;;3.72;;
3791;SDS011;1911;53.768;11.474;2023-02-28T01:51:43;8.82;;;4.22;;
3791;SDS011;1911;53.768;11.474;2023-02-28T01:54:20;8.52;;;4.28;;
3791;SDS011;1911;53.768;11.474;2023-02-28T01:56:50;9.77;;;4.05;;
3791;SDS011;1911;53.768;11.474;2023-02-28T01:59:22;5.53;;;3.15;;
3791;SDS011;1911;53.768;11.474;2023-02-28T02:01:54;7.25;;;3.70;;
3791;SDS011;1911;53.768;11.474;2023-02-28T02:04:23;4.35;;;2.65;;
3791;SDS011;1911;53.768;11.474;2023-02-28T02:06:51;7.00;;;3.45;;
3791;SDS011;1911;53.768;11.474;2023-02-28T02:09:17;4.63;;;2.63;;
3791;SDS011;1911;53.768;11.474;2023-02-28T02:11:43;9.17;;;3.40;;
3791;SDS011;1911;53.768;11.474;2023-02-28T02:25:54;3.83;;;2.97;;
3791;SDS011;1911;53.768;11.474;2023-02-28T02:28:46;6.95;;;3.00;;
3791;SDS011;1911;53.768;11.474;2023-02-28T02:36:53;5.15;;;3.28;;
3791;SDS011;1911;53.768;11.474;2023-02-28T02:42:16;8.82;;;3.70;;
3791;SDS011;1911;53.768;11.474;2023-02-28T02:44:50;7.35;;;4.25;;
3791;SDS011;1911;53.768;11.474;2023-02-28T02:47:27;4.13;;;2.80;;
3791;SDS011;1911;53.768;11.474;2023-02-28T02:49:56;8.60;;;3.85;;
3791;SDS011;1911;53.768;11.474;2023-02-28T02:52:29;5.57;;;3.10;;
3791;SDS011;1911;53.768;11.474;2023-02-28T02:55:01;5.85;;;3.38;;
3791;SDS011;1911;53.768;11.474;2023-02-28T02:57:33;4.60;;;3.35;;
3791;SDS011;1911;53.768;11.474;2023-02-28T03:00:04;6.88;;;2.80;;
3791;SDS011;1911;53.768;11.474;2023-02-28T03:02:33;6.72;;;3.38;;
3791;SDS011;1911;53.768;11.474;2023-02-28T03:05:03;6.25;;;3.50;;
3791;SDS011;1911;53.768;11.474;2023-02-28T03:07:33;7.18;;;2.40;;
3791;SDS011;1911;53.768;11.474;2023-02-28T03:09:59;8.03;;;3.80;;
3791;SDS011;1911;53.768;11.474;2023-02-28T03:12:32;5.20;;;3.00;;
3791;SDS011;1911;53.768;11.474;2023-02-28T03:20:34;4.65;;;2.75;;
3791;SDS011;1911;53.768;11.474;2023-02-28T03:23:13;6.30;;;3.20;;
3791;SDS011;1911;53.768;11.474;2023-02-28T03:25:59;7.53;;;2.60;;
3791;SDS011;1911;53.768;11.474;2023-02-28T03:31:32;4.90;;;2.92;;
3791;SDS011;1911;53.768;11.474;2023-02-28T03:34:29;10.85;;;3.83;;
3791;SDS011;1911;53.768;11.474;2023-02-28T03:37:07;6.45;;;3.00;;
3791;SDS011;1911;53.768;11.474;2023-02-28T03:39:40;9.32;;;2.80;;
3791;SDS011;1911;53.768;11.474;2023-02-28T03:42:41;5.70;;;2.95;;
3791;SDS011;1911;53.768;11.474;2023-02-28T03:45:11;3.78;;;2.47;;
3791;SDS011;1911;53.768;11.474;2023-02-28T03:47:42;6.43;;;3.22;;
3791;SDS011;1911;53.768;11.474;2023-02-28T03:50:30;8.52;;;3.10;;
3791;SDS011;1911;53.768;11.474;2023-02-28T03:53:21;6.70;;;3.63;;
3791;SDS011;1911;53.768;11.474;2023-02-28T03:55:55;5.00;;;3.40;;
3791;SDS011;1911;53.768;11.474;2023-02-28T03:58:31;5.80;;;3.25;;
3791;SDS011;1911;53.768;11.474;2023-02-28T04:01:12;4.28;;;3.08;;
3791;SDS011;1911;53.768;11.474;2023-02-28T04:03:43;6.57;;;3.30;;
3791;SDS011;1911;53.768;11.474;2023-02-28T04:06:12;5.07;;;3.07;;
3791;SDS011;1911;53.768;11.474;2023-02-28T04:08:41;11.73;;;4.53;;
3791;SDS011;1911;53.768;11.474;2023-02-28T04:11:18;5.60;;;3.10;;
3791;SDS011;1911;53.768;11.474;2023-02-28T04:13:47;8.80;;;3.42;;
3791;SDS011;1911;53.768;11.474;2023-02-28T04:16:13;7.80;;;4.07;;
3791;SDS011;1911;53.768;11.474;2023-02-28T04:18:39;4.03;;;2.70;;
3791;SDS011;1911;53.768;11.474;2023-02-28T04:21:05;4.88;;;3.72;;
3791;SDS011;1911;53.768;11.474;2023-02-28T04:23:31;5.38;;;3.42;;
3791;SDS011;1911;53.768;11.474;2023-02-28T04:25:57;9.77;;;4.00;;
3791;SDS011;1911;53.768;11.474;2023-02-28T04:28:23;7.50;;;3.40;;
3791;SDS011;1911;53.768;11.474;2023-02-28T04:30:55;5.23;;;4.00;;
3791;SDS011;1911;53.768;11.474;2023-02-28T04:33:21;12.25;;;3.38;;
3791;SDS011;1911;53.768;11.474;2023-02-28T04:35:47;8.70;;;3.47;;
3791;SDS011;1911;53.768;11.474;2023-02-28T04:38:13;6.17;;;3.70;;
3791;SDS011;1911;53.768;11.474;2023-02-28T04:40:38;10.00;;;4.40;;
3791;SDS011;1911;53.768;11.474;2023-02-28T04:43:04;5.30;;;4.07;;
3791;SDS011;1911;53.768;11.474;2023-02-28T04:45:29;5.57;;;3.50;;
3791;SDS011;1911;53.768;11.474;2023-02-28T04:47:57;5.35;;;3.30;;
3791;SDS011;1911;53.768;11.474;2023-02-28T04:50:23;7.95;;;4.20;;
3791;SDS011;1911;53.768;11.474;2023-02-28T04:52:48;6.30;;;3.60;;
3791;SDS011;1911;53.768;11.474;2023-02-28T04:55:14;8.40;;;3.77;;
3791;SDS011;1911;53.768;11.474;2023-02-28T04:57:40;6.27;;;3.43;;
3791;SDS011;1911;53.768;11.474;2023-02-28T05:00:07;5.32;;;3.55;;
3791;SDS011;1911;53.768;11.474;2023-02-28T05:02:36;5.35;;;4.07;;
3791;SDS011;1911;53.768;11.474;2023-02-28T05:05:04;8.57;;;4.00;;
3791;SDS011;1911;53.768;11.474;2023-02-28T05:07:30;8.07;;;4.25;;
3791;SDS011;1911;53.768;11.474;2023-02-28T05:09:55;7.50;;;3.80;;
3791;SDS011;1911;53.768;11.474;2023-02-28T05:12:21;10.33;;;4.57;;
3791;SDS011;1911;53.768;11.474;2023-02-28T05:14:47;6.87;;;3.40;;
3791;SDS011;1911;53.768;11.474;2023-02-28T05:17:12;8.93;;;4.33;;
3791;SDS011;1911;53.768;11.474;2023-02-28T05:19:38;5.87;;;3.80;;
3791;SDS011;1911;53.768;11.474;2023-02-28T05:22:03;8.50;;;4.13;;
3791;SDS011;1911;53.768;11.474;2023-02-28T05:24:29;9.07;;;4.13;;
3791;SDS011;1911;53.768;11.474;2023-02-28T05:26:55;6.70;;;4.30;;
3791;SDS011;1911;53.768;11.474;2023-02-28T05:29:21;8.10;;;4.30;;
3791;SDS011;1911;53.768;11.474;2023-02-28T05:31:47;6.47;;;3.15;;
3791;SDS011;1911;53.768;11.474;2023-02-28T05:34:12;10.83;;;3.97;;
3791;SDS011;1911;53.768;11.474;2023-02-28T05:36:40;9.30;;;3.90;;
3791;SDS011;1911;53.768;11.474;2023-02-28T05:39:06;7.07;;;4.20;;
3791;SDS011;1911;53.768;11.474;2023-02-28T05:41:37;7.78;;;4.30;;
3791;SDS011;1911;53.768;11.474;2023-02-28T05:44:04;6.15;;;4.00;;
3791;SDS011;1911;53.768;11.474;2023-02-28T05:46:30;6.77;;;4.47;;
3791;SDS011;1911;53.768;11.474;2023-02-28T05:48:55;7.03;;;4.23;;
3791;SDS011;1911;53.768;11.474;2023-02-28T05:51:22;8.48;;;3.83;;
3791;SDS011;1911;53.768;11.474;2023-02-28T05:53:48;9.77;;;3.67;;
3791;SDS011;1911;53.768;11.474;2023-02-28T05:56:14;7.65;;;4.22;;
3791;SDS011;1911;53.768;11.474;2023-02-28T05:58:40;5.40;;;3.70;;
3791;SDS011;1911;53.768;11.474;2023-02-28T06:01:19;5.27;;;3.03;;
3791;SDS011;1911;53.768;11.474;2023-02-28T06:03:45;7.93;;;3.90;;
3791;SDS011;1911;53.768;11.474;2023-02-28T06:06:10;8.40;;;4.83;;
3791;SDS011;1911;53.768;11.474;2023-02-28T06:08:36;8.47;;;3.60;;
3791;SDS011;1911;53.768;11.474;2023-02-28T06:11:05;6.70;;;3.53;;
3791;SDS011;1911;53.768;11.474;2023-02-28T06:13:31;5.80;;;3.70;;
3791;SDS011;1911;53.768;11.474;2023-02-28T06:16:00;6.33;;;3.70;;
3791;SDS011;1911;53.768;11.474;2023-02-28T06:18:26;6.82;;;3.80;;
3791;SDS011;1911;53.768;11.474;2023-02-28T06:20:52;5.87;;;4.50;;
3791;SDS011;1911;53.768;11.474;2023-02-28T06:23:19;6.22;;;4.65;;
3791;SDS011;1911;53.768;11.474;2023-02-28T06:25:45;7.15;;;4.30;;
3791;SDS011;1911;53.768;11.474;2023-02-28T06:28:11;7.47;;;4.40;;
3791;SDS011;1911;53.768;11.474;2023-02-28T06:30:37;8.73;;;4.23;;
3791;SDS011;1911;53.768;11.474;2023-02-28T06:33:03;5.47;;;4.15;;
3791;SDS011;1911;53.768;11.474;2023-02-28T06:35:29;8.07;;;4.77;;
3791;SDS011;1911;53.768;11.474;2023-02-28T06:37:54;5.77;;;3.63;;
3791;SDS011;1911;53.768;11.474;2023-02-28T06:40:20;6.80;;;4.60;;
3791;SDS011;1911;53.768;11.474;2023-02-28T06:42:46;8.27;;;4.93;;
3791;SDS011;1911;53.768;11.474;2023-02-28T06:45:12;6.87;;;4.17;;
3791;SDS011;1911;53.768;11.474;2023-02-28T06:47:38;7.57;;;4.30;;
3791;SDS011;1911;53.768;11.474;2023-02-28T06:50:05;15.75;;;6.22;;
3791;SDS011;1911;53.768;11.474;2023-02-28T06:52:34;8.68;;;4.65;;
3791;SDS011;1911;53.768;11.474;2023-02-28T06:55:03;9.50;;;5.25;;
3791;SDS011;1911;53.768;11.474;2023-02-28T06:57:30;10.18;;;4.75;;
3791;SDS011;1911;53.768;11.474;2023-02-28T06:59:57;7.78;;;4.78;;
3791;SDS011;1911;53.768;11.474;2023-02-28T07:02:24;7.15;;;4.85;;
3791;SDS011;1911;53.768;11.474;2023-02-28T07:04:50;7.60;;;4.63;;
3791;SDS011;1911;53.768;11.474;2023-02-28T07:07:15;10.10;;;3.80;;
3791;SDS011;1911;53.768;11.474;2023-02-28T07:09:41;10.50;;;4.67;;
3791;SDS011;1911;53.768;11.474;2023-02-28T07:12:06;6.73;;;3.40;;
3791;SDS011;1911;53.768;11.474;2023-02-28T07:14:32;5.10;;;3.70;;
3791;SDS011;1911;53.768;11.474;2023-02-28T07:16:57;6.30;;;3.37;;
3791;SDS011;1911;53.768;11.474;2023-02-28T07:19:23;5.70;;;3.40;;
3791;SDS011;1911;53.768;11.474;2023-02-28T07:21:48;5.37;;;3.13;;
3791;SDS011;1911;53.768;11.474;2023-02-28T07:24:14;5.30;;;3.17;;
3791;SDS011;1911;53.768;11.474;2023-02-28T07:26:41;6.60;;;3.43;;
3791;SDS011;1911;53.768;11.474;2023-02-28T07:29:06;9.00;;;3.00;;
3791;SDS011;1911;53.768;11.474;2023-02-28T07:31:32;9.00;;;4.13;;
3791;SDS011;1911;53.768;11.474;2023-02-28T07:33:58;5.67;;;3.80;;
3791;SDS011;1911;53.768;11.474;2023-02-28T07:36:23;5.00;;;2.73;;
3791;SDS011;1911;53.768;11.474;2023-02-28T07:38:49;4.93;;;3.00;;
3791;SDS011;1911;53.768;11.474;2023-02-28T07:41:18;4.80;;;3.40;;
3791;SDS011;1911;53.768;11.474;2023-02-28T07:43:45;8.07;;;3.60;;
3791;SDS011;1911;53.768;11.474;2023-02-28T07:46:12;4.30;;;2.80;;
3791;SDS011;1911;53.768;11.474;2023-02-28T07:48:42;7.80;;;3.37;;
3791;SDS011;1911;53.768;11.474;2023-02-28T07:51:08;4.07;;;3.20;;
3791;SDS011;1911;53.768;11.474;2023-02-28T07:53:34;5.73;;;2.90;;
3791;SDS011;1911;53.768;11.474;2023-02-28T07:56:01;3.53;;;3.13;;
3791;SDS011;1911;53.768;11.474;2023-02-28T07:58:28;4.00;;;2.53;;
3791;SDS011;1911;53.768;11.474;2023-02-28T08:00:54;6.43;;;3.23;;
3791;SDS011;1911;53.768;11.474;2023-02-28T08:03:21;5.57;;;3.50;;
3791;SDS011;1911;53.768;11.474;2023-02-28T08:05:47;5.47;;;3.10;;
3791;SDS011;1911;53.768;11.474;2023-02-28T08:08:14;5.37;;;3.67;;
3791;SDS011;1911;53.768;11.474;2023-02-28T08:10:40;6.30;;;3.57;;
3791;SDS011;1911;53.768;11.474;2023-02-28T08:13:06;5.80;;;3.20;;
3791;SDS011;1911;53.768;11.474;2023-02-28T08:15:32;4.90;;;3.40;;
3791;SDS011;1911;53.768;11.474;2023-02-28T08:17:57;5.30;;;3.47;;
3791;SDS011;1911;53.768;11.474;2023-02-28T08:20:24;5.77;;;4.30;;
3791;SDS011;1911;53.768;11.474;2023-02-28T08:22:50;6.43;;;4.50;;
3791;SDS011;1911;53.768;11.474;2023-02-28T08:25:16;4.80;;;4.20;;
3791;SDS011;1911;53.768;11.474;2023-02-28T08:27:41;5.83;;;3.60;;
3791;SDS011;1911;53.768;11.474;2023-02-28T08:30:08;4.83;;;3.70;;
3791;SDS011;1911;53.768;11.474;2023-02-28T08:32:36;5.73;;;3.83;;
3791;SDS011;1911;53.768;11.474;2023-02-28T08:35:04;6.70;;;4.33;;
3791;SDS011;1911;53.768;11.474;2023-02-28T08:37:30;7.50;;;4.43;;
3791;SDS011;1911;53.768;11.474;2023-02-28T08:39:56;7.07;;;4.60;;
3791;SDS011;1911;53.768;11.474;2023-02-28T08:42:21;7.83;;;4.90;;
3791;SDS011;1911;53.768;11.474;2023-02-28T08:44:47;5.90;;;4.30;;
3791;SDS011;1911;53.768;11.474;2023-02-28T08:47:13;6.30;;;4.37;;
3791;SDS011;1911;53.768;11.474;2023-02-28T08:49:39;5.90;;;4.50;;
3791;SDS011;1911;53.768;11.474;2023-02-28T08:52:05;5.97;;;4.47;;
3791;SDS011;1911;53.768;11.474;2023-02-28T08:54:31;15.40;;;5.50;;
3791;SDS011;1911;53.768;11.474;2023-02-28T08:56:58;6.40;;;4.57;;
3791;SDS011;1911;53.768;11.474;2023-02-28T08:59:23;5.77;;;3.97;;
3791;SDS011;1911;53.768;11.474;2023-02-28T09:01:49;8.47;;;5.33;;
3791;SDS011;1911;53.768;11.474;2023-02-28T09:04:15;10.33;;;5.50;;
3791;SDS011;1911;53.768;11.474;2023-02-28T09:06:40;9.60;;;5.57;;
3791;SDS011;1911;53.768;11.474;2023-02-28T09:09:06;11.07;;;5.13;;
3791;SDS011;1911;53.768;11.474;2023-02-28T09:11:32;7.10;;;5.13;;
3791;SDS011;1911;53.768;11.474;2023-02-28T09:14:00;5.73;;;4.53;;
3791;SDS011;1911;53.768;11.474;2023-02-28T09:16:25;7.80;;;5.07;;
3791;SDS011;1911;53.768;11.474;2023-02-28T09:18:51;9.93;;;5.67;;
3791;SDS011;1911;53.768;11.474;2023-02-28T09:21:18;11.27;;;5.80;;
3791;SDS011;1911;53.768;11.474;2023-02-28T09:23:44;7.27;;;5.10;;
3791;SDS011;1911;53.768;11.474;2023-02-28T09:26:17;7.53;;;4.67;;
3791;SDS011;1911;53.768;11.474;2023-02-28T09:28:49;6.70;;;4.67;;
3791;SDS011;1911;53.768;11.474;2023-02-28T09:31:16;7.40;;;5.17;;
3791;SDS011;1911;53.768;11.474;2023-02-28T09:33:51;11.80;;;6.20;;
3791;SDS011;1911;53.768;11.474;2023-02-28T09:36:18;8.67;;;5.60;;
3791;SDS011;1911;53.768;11.474;2023-02-28T09:38:44;7.47;;;4.20;;
3791;SDS011;1911;53.768;11.474;2023-02-28T09:41:15;6.93;;;4.90;;
3791;SDS011;1911;53.768;11.474;2023-02-28T09:43:47;8.93;;;4.83;;
3791;SDS011;1911;53.768;11.474;2023-02-28T09:46:24;4.30;;;3.47;;
3791;SDS011;1911;53.768;11.474;2023-02-28T09:49:15;5.70;;;3.83;;
3791;SDS011;1911;53.768;11.474;2023-02-28T09:54:31;5.07;;;4.10;;
3791;SDS011;1911;53.768;11.474;2023-02-28T09:57:08;5.63;;;3.83;;
3791;SDS011;1911;53.768;11.474;2023-02-28T09:59:52;6.07;;;4.20;;
3791;SDS011;1911;53.768;11.474;2023-02-28T10:08:42;5.77;;;3.77;;
3791;SDS011;1911;53.768;11.474;2023-02-28T10:11:19;5.43;;;3.90;;
3791;SDS011;1911;53.768;11.474;2023-02-28T10:19:33;6.27;;;4.57;;
3791;SDS011;1911;53.768;11.474;2023-02-28T10:22:10;6.60;;;4.70;;
3791;SDS011;1911;53.768;11.474;2023-02-28T10:24:58;6.13;;;4.67;;
3791;SDS011;1911;53.768;11.474;2023-02-28T10:27:32;9.43;;;4.23;;
3791;SDS011;1911;53.768;11.474;2023-02-28T10:30:09;5.77;;;4.53;;
3791;SDS011;1911;53.768;11.474;2023-02-28T10:32:36;7.03;;;4.10;;
3791;SDS011;1911;53.768;11.474;2023-02-28T10:37:47;5.83;;;4.80;;
3791;SDS011;1911;53.768;11.474;2023-02-28T10:45:24;7.33;;;3.90;;
3791;SDS011;1911;53.768;11.474;2023-02-28T10:50:37;5.13;;;3.97;;
3791;SDS011;1911;53.768;11.474;2023-02-28T10:55:56;4.07;;;3.10;;
3791;SDS011;1911;53.768;11.474;2023-02-28T10:58:28;9.03;;;4.20;;
3791;SDS011;1911;53.768;11.474;2023-02-28T11:01:15;5.97;;;3.73;;
3791;SDS011;1911;53.768;11.474;2023-02-28T11:03:46;5.30;;;3.20;;
3791;SDS011;1911;53.768;11.474;2023-02-28T11:06:15;7.20;;;3.40;;
3791;SDS011;1911;53.768;11.474;2023-02-28T11:08:50;4.73;;;3.60;;
3791;SDS011;1911;53.768;11.474;2023-02-28T11:11:22;5.03;;;3.17;;
3791;SDS011;1911;53.768;11.474;2023-02-28T11:13:57;3.70;;;3.00;;
3791;SDS011;1911;53.768;11.474;2023-02-28T11:16:32;3.47;;;2.93;;
3791;SDS011;1911;53.768;11.474;2023-02-28T11:19:00;5.37;;;3.03;;
3791;SDS011;1911;53.768;11.474;2023-02-28T11:21:27;3.43;;;2.67;;
3791;SDS011;1911;53.768;11.474;2023-02-28T11:24:02;4.07;;;2.73;;
3791;SDS011;1911;53.768;11.474;2023-02-28T11:26:42;7.60;;;2.37;;
3791;SDS011;1911;53.768;11.474;2023-02-28T11:29:11;8.77;;;3.00;;
3791;SDS011;1911;53.768;11.474;2023-02-28T11:34:33;3.93;;;1.87;;
3791;SDS011;1911;53.768;11.474;2023-02-28T11:37:00;5.53;;;2.77;;
3791;SDS011;1911;53.768;11.474;2023-02-28T11:39:30;4.60;;;2.93;;
3791;SDS011;1911;53.768;11.474;2023-02-28T11:45:12;3.07;;;2.10;;
3791;SDS011;1911;53.768;11.474;2023-02-28T12:09:59;3.87;;;1.93;;
3791;SDS011;1911;53.768;11.474;2023-02-28T12:15:28;3.77;;;2.10;;
3791;SDS011;1911;53.768;11.474;2023-02-28T12:24:07;2.50;;;1.33;;
3791;SDS011;1911;53.768;11.474;2023-02-28T12:26:55;2.70;;;1.97;;
3791;SDS011;1911;53.768;11.474;2023-02-28T12:29:25;4.00;;;1.90;;
3791;SDS011;1911;53.768;11.474;2023-02-28T12:32:11;5.60;;;2.10;;
3791;SDS011;1911;53.768;11.474;2023-02-28T12:34:43;4.43;;;1.80;;
3791;SDS011;1911;53.768;11.474;2023-02-28T12:37:35;2.63;;;1.73;;
3791;SDS011;1911;53.768;11.474;2023-02-28T12:40:06;2.03;;;1.57;;
3791;SDS011;1911;53.768;11.474;2023-02-28T12:42:39;3.43;;;1.40;;
3791;SDS011;1911;53.768;11.474;2023-02-28T12:47:42;4.50;;;1.70;;
3791;SDS011;1911;53.768;11.474;2023-02-28T12:50:11;2.90;;;1.60;;
3791;SDS011;1911;53.768;11.474;2023-02-28T12:52:41;3.30;;;1.80;;
3791;SDS011;1911;53.768;11.474;2023-02-28T13:06:34;5.07;;;1.90;;
3791;SDS011;1911;53.768;11.474;2023-02-28T13:09:31;4.40;;;2.90;;
3791;SDS011;1911;53.768;11.474;2023-02-28T13:11:57;5.27;;;1.77;;
3791;SDS011;1911;53.768;11.474;2023-02-28T13:14:28;2.63;;;1.80;;
3791;SDS011;1911;53.768;11.474;2023-02-28T13:17:02;2.40;;;1.77;;
3791;SDS011;1911;53.768;11.474;2023-02-28T13:19:32;4.00;;;1.57;;
3791;SDS011;1911;53.768;11.474;2023-02-28T13:22:00;2.20;;;1.30;;
3791;SDS011;1911;53.768;11.474;2023-02-28T13:34:36;2.10;;;0.80;;
3791;SDS011;1911;53.768;11.474;2023-02-28T13:39:52;1.53;;;0.73;;
3791;SDS011;1911;53.768;11.474;2023-02-28T13:50:36;1.60;;;1.00;;
3791;SDS011;1911;53.768;11.474;2023-02-28T14:01:35;2.33;;;0.90;;
3791;SDS011;1911;53.768;11.474;2023-02-28T14:06:48;3.20;;;1.40;;
3791;SDS011;1911;53.768;11.474;2023-02-28T14:18:17;2.40;;;1.13;;
3791;SDS011;1911;53.768;11.474;2023-02-28T14:20:47;2.13;;;1.27;;
3791;SDS011;1911;53.768;11.474;2023-02-28T14:28:53;1.40;;;0.83;;
3791;SDS011;1911;53.768;11.474;2023-02-28T14:31:52;1.47;;;1.10;;
3791;SDS011;1911;53.768;11.474;2023-02-28T14:34:26;1.73;;;1.23;;
3791;SDS011;1911;53.768;11.474;2023-02-28T14:37:01;4.80;;;1.30;;
3791;SDS011;1911;53.768;11.474;2023-02-28T14:39:28;5.90;;;1.40;;
3791;SDS011;1911;53.768;11.474;2023-02-28T14:41:56;2.50;;;1.30;;
3791;SDS011;1911;53.768;11.474;2023-02-28T14:44:28;3.23;;;1.20;;
3791;SDS011;1911;53.768;11.474;2023-02-28T14:46:54;1.83;;;1.10;;
3791;SDS011;1911;53.768;11.474;2023-02-28T14:49:35;4.27;;;1.13;;
3791;SDS011;1911;53.768;11.474;2023-02-28T14:52:09;1.73;;;1.10;;
3791;SDS011;1911;53.768;11.474;2023-02-28T14:54:52;3.80;;;1.00;;
3791;SDS011;1911;53.768;11.474;2023-02-28T15:00:03;1.40;;;0.80;;
3791;SDS011;1911;53.768;11.474;2023-02-28T15:02:38;2.63;;;1.50;;
3791;SDS011;1911;53.768;11.474;2023-02-28T15:07:45;2.20;;;1.30;;
3791;SDS011;1911;53.768;11.474;2023-02-28T15:10:20;3.40;;;1.63;;
3791;SDS011;1911;53.768;11.474;2023-02-28T15:12:52;2.00;;;1.10;;
3791;SDS011;1911;53.768;11.474;2023-02-28T15:16:09;2.60;;;1.27;;
3791;SDS011;1911;53.768;11.474;2023-02-28T15:21:11;4.10;;;1.43;;
3791;SDS011;1911;53.768;11.474;2023-02-28T15:23:52;4.43;;;1.40;;
3791;SDS011;1911;53.768;11.474;2023-02-28T15:26:22;1.40;;;0.80;;
3791;SDS011;1911;53.768;11.474;2023-02-28T15:29:22;2.50;;;1.00;;
3791;SDS011;1911;53.768;11.474;2023-02-28T15:32:05;2.20;;;1.10;;
3791;SDS011;1911;53.768;11.474;2023-02-28T15:34:36;1.20;;;0.80;;
3791;SDS011;1911;53.768;11.474;2023-02-28T15:39:57;1.77;;;1.03;;
3791;SDS011;1911;53.768;11.474;2023-02-28T15:42:30;1.67;;;1.00;;
3791;SDS011;1911;53.768;11.474;2023-02-28T15:44:56;3.83;;;1.60;;
3791;SDS011;1911;53.768;11.474;2023-02-28T15:47:23;2.97;;;1.30;;
3791;SDS011;1911;53.768;11.474;2023-02-28T15:49:52;2.57;;;1.63;;
3791;SDS011;1911;53.768;11.474;2023-02-28T15:55:16;2.97;;;1.10;;
3791;SDS011;1911;53.768;11.474;2023-02-28T15:57:43;3.07;;;1.40;;
3791;SDS011;1911;53.768;11.474;2023-02-28T16:00:13;2.13;;;1.20;;
3791;SDS011;1911;53.768;11.474;2023-02-28T16:02:43;2.47;;;1.40;;
3791;SDS011;1911;53.768;11.474;2023-02-28T16:07:43;2.30;;;1.40;;
3791;SDS011;1911;53.768;11.474;2023-02-28T16:10:10;2.03;;;1.37;;
3791;SDS011;1911;53.768;11.474;2023-02-28T16:12:37;2.33;;;1.53;;
3791;SDS011;1911;53.768;11.474;2023-02-28T16:15:16;3.57;;;1.47;;
3791;SDS011;1911;53.768;11.474;2023-02-28T16:17:47;2.07;;;1.30;;
3791;SDS011;1911;53.768;11.474;2023-02-28T16:20:17;2.30;;;1.30;;
3791;SDS011;1911;53.768;11.474;2023-02-28T16:22:45;3.63;;;1.70;;
3791;SDS011;1911;53.768;11.474;2023-02-28T16:25:12;2.00;;;1.40;;
3791;SDS011;1911;53.768;11.474;2023-02-28T16:27:39;2.17;;;1.30;;
3791;SDS011;1911;53.768;11.474;2023-02-28T16:30:15;2.93;;;1.57;;
3791;SDS011;1911;53.768;11.474;2023-02-28T16:32:44;1.83;;;1.20;;
3791;SDS011;1911;53.768;11.474;2023-02-28T16:35:10;3.70;;;1.53;;
3791;SDS011;1911;53.768;11.474;2023-02-28T16:37:36;2.20;;;1.30;;
3791;SDS011;1911;53.768;11.474;2023-02-28T16:40:02;3.00;;;1.70;;
3791;SDS011;1911;53.768;11.474;2023-02-28T16:42:28;2.53;;;1.53;;
3791;SDS011;1911;53.768;11.474;2023-02-28T16:44:55;3.40;;;1.60;;
3791;SDS011;1911;53.768;11.474;2023-02-28T16:47:22;4.63;;;1.50;;
3791;SDS011;1911;53.768;11.474;2023-02-28T16:49:48;3.07;;;1.77;;
3791;SDS011;1911;53.768;11.474;2023-02-28T16:52:14;3.83;;;1.67;;
3791;SDS011;1911;53.768;11.474;2023-02-28T16:54:41;3.67;;;2.10;;
3791;SDS011;1911;53.768;11.474;2023-02-28T16:57:13;2.63;;;1.40;;
3791;SDS011;1911;53.768;11.474;2023-02-28T16:59:43;3.33;;;1.90;;
3791;SDS011;1911;53.768;11.474;2023-02-28T17:02:13;2.77;;;2.20;;
3791;SDS011;1911;53.768;11.474;2023-02-28T17:04:41;3.90;;;2.37;;
3791;SDS011;1911;53.768;11.474;2023-02-28T17:07:10;4.50;;;2.13;;
3791;SDS011;1911;53.768;11.474;2023-02-28T17:09:37;3.23;;;2.17;;
3791;SDS011;1911;53.768;11.474;2023-02-28T17:12:03;3.10;;;1.70;;
3791;SDS011;1911;53.768;11.474;2023-02-28T17:14:29;3.60;;;2.17;;
3791;SDS011;1911;53.768;11.474;2023-02-28T17:16:54;7.83;;;3.80;;
3791;SDS011;1911;53.768;11.474;2023-02-28T17:19:20;7.57;;;4.90;;
3791;SDS011;1911;53.768;11.474;2023-02-28T17:21:45;7.10;;;4.90;;
3791;SDS011;1911;53.768;11.474;2023-02-28T17:24:11;7.77;;;4.53;;
3791;SDS011;1911;53.768;11.474;2023-02-28T17:26:38;6.20;;;5.03;;
3791;SDS011;1911;53.768;11.474;2023-02-28T17:29:11;5.97;;;3.40;;
3791;SDS011;1911;53.768;11.474;2023-02-28T17:31:39;9.00;;;4.73;;
3791;SDS011;1911;53.768;11.474;2023-02-28T17:34:05;9.67;;;6.30;;
3791;SDS011;1911;53.768;11.474;2023-02-28T17:36:31;7.50;;;5.13;;
3791;SDS011;1911;53.768;11.474;2023-02-28T17:38:58;9.33;;;5.13;;
3791;SDS011;1911;53.768;11.474;2023-02-28T17:41:24;11.47;;;5.37;;
3791;SDS011;1911;53.768;11.474;2023-02-28T17:43:51;19.33;;;8.60;;
3791;SDS011;1911;53.768;11.474;2023-02-28T17:46:18;8.70;;;5.97;;
3791;SDS011;1911;53.768;11.474;2023-02-28T17:48:47;4.57;;;4.00;;
3791;SDS011;1911;53.768;11.474;2023-02-28T17:51:15;7.00;;;4.60;;
3791;SDS011;1911;53.768;11.474;2023-02-28T17:53:41;7.13;;;4.37;;
3791;SDS011;1911;53.768;11.474;2023-02-28T17:56:13;7.20;;;4.13;;
3791;SDS011;1911;53.768;11.474;2023-02-28T17:58:42;17.53;;;9.50;;
3791;SDS011;1911;53.768;11.474;2023-02-28T18:01:08;15.17;;;8.17;;
3791;SDS011;1911;53.768;11.474;2023-02-28T18:03:37;22.30;;;8.80;;
3791;SDS011;1911;53.768;11.474;2023-02-28T18:06:03;15.90;;;8.87;;